Laghouat, Algeria
Current Conditions -  °F | °C
As of 1:00 PM on Wednesday 28 Jan 2015 (Local Time) from DAUL Reporting Station
Few Clouds Few Clouds  
Wind Chill: 55°   Ceiling: Unl
Heat Index: 55°   Visibility: 6mi
Dew Point: 32°   Wind: 21mph
Humidity: 41%   Direction: 350°N
Pressure: 30.15"   Gusts: NA
Location:  33.8°N, 2.88°E
Report Text: DAUL 281200Z 35018KT 9999 FEW030 13/M00 Q1021
Loading
Personal Weather Stations






























Interactive Weather Map New forecast layout! Learn more

10-Day Weather Forecast

Advertisements
Track Severe Weather on mobile